createdAt,value
2019-05-30T00:00:38.341Z,13.77
2019-05-30T00:03:08.019Z,13.71
2019-05-30T00:05:37.795Z,13.67
2019-05-30T00:08:07.523Z,13.67
2019-05-30T00:10:37.386Z,13.64
2019-05-30T00:13:07.047Z,13.62
2019-05-30T00:15:36.642Z,13.63
2019-05-30T00:18:06.382Z,13.60
2019-05-30T00:20:36.124Z,13.58
2019-05-30T00:23:05.948Z,13.57
2019-05-30T00:25:35.617Z,13.53
2019-05-30T00:28:05.500Z,13.49
2019-05-30T00:30:35.219Z,13.51
2019-05-30T00:33:05.232Z,13.51
2019-05-30T00:35:34.964Z,13.49
2019-05-30T00:38:05.983Z,13.49
2019-05-30T00:40:35.800Z,13.45
2019-05-30T00:43:06.288Z,13.35
2019-05-30T00:45:36.258Z,13.36
2019-05-30T00:48:06.513Z,13.33
2019-05-30T00:50:36.544Z,13.34
2019-05-30T00:53:07.044Z,13.38
2019-05-30T00:55:37.115Z,13.35
2019-05-30T00:58:07.489Z,13.31
2019-05-30T01:00:43.534Z,13.28
2019-05-30T01:03:09.183Z,13.31
2019-05-30T01:05:39.181Z,13.36
2019-05-30T01:08:08.998Z,13.38
2019-05-30T01:10:38.681Z,13.35
2019-05-30T01:13:08.433Z,13.44
2019-05-30T01:15:38.115Z,13.48
2019-05-30T01:18:07.889Z,13.53
2019-05-30T01:20:37.638Z,13.59
2019-05-30T01:23:07.511Z,13.62
2019-05-30T01:25:37.324Z,13.62
2019-05-30T01:28:07.855Z,13.58
2019-05-30T01:30:37.756Z,13.56
2019-05-30T01:33:08.075Z,13.61
2019-05-30T01:35:37.890Z,13.58
2019-05-30T01:38:08.161Z,13.61
2019-05-30T01:40:37.985Z,13.63
2019-05-30T01:43:08.259Z,13.62
2019-05-30T01:45:38.156Z,13.68
2019-05-30T01:48:08.591Z,13.63
2019-05-30T01:50:38.475Z,13.59
2019-05-30T01:53:08.855Z,13.61
2019-05-30T01:55:38.677Z,13.60
2019-05-30T01:58:09.372Z,13.64
2019-05-30T02:00:41.067Z,13.62
2019-05-30T02:03:11.000Z,13.64
2019-05-30T02:05:40.925Z,13.65
2019-05-30T02:08:10.717Z,13.67
2019-05-30T02:10:40.474Z,13.68
2019-05-30T02:13:10.175Z,13.67
2019-05-30T02:15:39.837Z,13.67
2019-05-30T02:18:10.142Z,13.74
2019-05-30T02:20:40.279Z,13.76
2019-05-30T02:23:11.433Z,13.75
2019-05-30T02:25:41.414Z,13.73
2019-05-30T02:28:10.975Z,13.69
2019-05-30T02:30:40.732Z,13.70
2019-05-30T02:33:12.633Z,13.70
2019-05-30T02:35:42.543Z,13.70
2019-05-30T02:38:12.374Z,13.71
2019-05-30T02:40:41.950Z,13.71
2019-05-30T02:43:12.406Z,13.64
2019-05-30T02:45:42.204Z,13.64
2019-05-30T02:48:12.392Z,13.65
2019-05-30T02:50:43.138Z,13.67
2019-05-30T02:53:13.375Z,13.68
2019-05-30T02:55:43.758Z,13.64
2019-05-30T02:58:14.142Z,13.70
2019-05-30T03:00:44.277Z,13.69
2019-05-30T03:03:14.915Z,13.75
2019-05-30T03:05:44.882Z,13.76
2019-05-30T03:08:14.888Z,13.80
2019-05-30T03:10:44.874Z,13.81
2019-05-30T03:13:14.626Z,13.80
2019-05-30T03:15:44.449Z,13.83
2019-05-30T03:18:15.102Z,13.86
2019-05-30T03:20:45.624Z,13.83
2019-05-30T03:23:15.896Z,13.84
2019-05-30T03:25:46.105Z,13.87
2019-05-30T03:28:16.355Z,13.88
2019-05-30T03:30:47.505Z,13.87
2019-05-30T03:33:35.973Z,13.86
2019-05-30T03:35:49.947Z,13.88
2019-05-30T03:38:20.027Z,13.85
2019-05-30T03:40:50.438Z,13.88
2019-05-30T03:43:20.676Z,13.87
2019-05-30T03:45:51.455Z,13.86
2019-05-30T03:48:24.571Z,13.85
2019-05-30T03:50:56.940Z,13.84
2019-05-30T03:53:27.280Z,13.84
2019-05-30T03:56:01.878Z,13.84
2019-05-30T03:58:39.566Z,13.88
2019-05-30T04:01:14.859Z,13.88
2019-05-30T04:04:09.917Z,13.85
2019-05-30T04:06:45.675Z,13.83
2019-05-30T04:09:22.414Z,13.79
2019-05-30T04:12:07.780Z,13.84
2019-05-30T04:14:42.897Z,13.87
2019-05-30T04:17:15.240Z,13.94
2019-05-30T04:19:44.302Z,13.94
2019-05-30T04:22:15.533Z,13.94
2019-05-30T04:24:46.069Z,13.96
2019-05-30T04:27:18.074Z,14.02
2019-05-30T04:29:48.173Z,14.03
2019-05-30T04:32:18.751Z,14.10
2019-05-30T04:34:49.334Z,14.11
2019-05-30T04:37:19.690Z,14.10
2019-05-30T04:39:50.122Z,14.11
2019-05-30T04:42:20.890Z,14.13
2019-05-30T04:44:51.398Z,14.15
2019-05-30T04:47:21.666Z,14.15
2019-05-30T04:49:51.879Z,14.23
2019-05-30T04:52:24.730Z,14.31
2019-05-30T04:54:54.090Z,14.34
2019-05-30T04:57:26.848Z,14.36
2019-05-30T04:59:56.083Z,14.43
2019-05-30T05:02:26.219Z,14.49
2019-05-30T05:04:56.650Z,14.59
2019-05-30T05:07:26.841Z,15.04
2019-05-30T05:09:57.393Z,15.57
2019-05-30T05:12:27.753Z,15.89
2019-05-30T05:14:58.237Z,16.20
2019-05-30T05:17:28.595Z,16.47
2019-05-30T05:19:58.715Z,16.66
2019-05-30T05:22:28.837Z,16.78
2019-05-30T05:24:59.098Z,16.97
2019-05-30T05:27:29.493Z,17.04
2019-05-30T05:29:59.743Z,17.16
2019-05-30T05:32:29.999Z,17.33
2019-05-30T05:35:00.187Z,17.48
2019-05-30T05:37:30.714Z,17.57
2019-05-30T05:40:01.177Z,17.67
2019-05-30T05:42:31.506Z,17.76
2019-05-30T05:45:01.814Z,17.79
2019-05-30T05:47:32.018Z,17.74
2019-05-30T05:50:02.161Z,17.79
2019-05-30T05:52:32.585Z,17.72
2019-05-30T05:55:03.070Z,17.65
2019-05-30T05:57:33.529Z,17.65
2019-05-30T06:00:04.813Z,17.66
2019-05-30T06:02:35.358Z,17.72
2019-05-30T06:05:07.753Z,17.81
2019-05-30T06:07:37.903Z,17.95
2019-05-30T06:10:08.350Z,17.90
2019-05-30T06:12:38.303Z,17.91
2019-05-30T06:15:08.753Z,17.78
2019-05-30T06:17:38.874Z,17.60
2019-05-30T06:20:09.434Z,17.52
2019-05-30T06:22:39.591Z,17.23
2019-05-30T06:25:09.805Z,17.21
2019-05-30T06:27:40.097Z,17.26
2019-05-30T06:30:10.964Z,17.13
2019-05-30T06:32:41.107Z,17.08
2019-05-30T06:35:11.720Z,17.02
2019-05-30T06:37:42.162Z,17.08
2019-05-30T06:40:13.597Z,16.98
2019-05-30T06:42:43.782Z,16.94
2019-05-30T06:45:15.918Z,17.01
2019-05-30T06:47:46.338Z,17.01
2019-05-30T06:50:16.809Z,17.05
2019-05-30T06:52:47.215Z,17.03
2019-05-30T06:55:17.662Z,16.85
2019-05-30T06:57:47.799Z,16.79
2019-05-30T07:00:19.069Z,16.77
2019-05-30T07:02:49.466Z,16.91
2019-05-30T07:05:20.494Z,16.91
2019-05-30T07:07:51.071Z,16.69
2019-05-30T07:10:22.620Z,16.95
2019-05-30T07:12:53.102Z,16.83
2019-05-30T07:15:25.019Z,16.99
2019-05-30T07:17:55.693Z,17.06
2019-05-30T07:20:27.449Z,16.85
2019-05-30T07:22:58.001Z,16.86
2019-05-30T07:25:29.803Z,16.91
2019-05-30T07:28:00.279Z,16.99
2019-05-30T07:30:31.742Z,16.98
2019-05-30T07:33:02.539Z,17.17
2019-05-30T07:35:32.763Z,17.23
2019-05-30T07:38:03.236Z,17.32
2019-05-30T07:40:33.449Z,17.49
2019-05-30T07:43:03.774Z,17.50
2019-05-30T07:45:35.487Z,17.29
2019-05-30T07:48:06.007Z,17.24
2019-05-30T07:50:36.201Z,17.50
2019-05-30T07:53:06.382Z,17.67
2019-05-30T07:55:36.721Z,17.52
2019-05-30T07:58:07.057Z,17.51
2019-05-30T08:00:37.759Z,17.70
2019-05-30T08:03:08.009Z,17.67
2019-05-30T08:05:38.976Z,17.70
2019-05-30T08:08:09.346Z,17.37
2019-05-30T08:10:39.693Z,17.28
2019-05-30T08:13:10.007Z,17.17
2019-05-30T08:15:44.113Z,17.22
2019-05-30T08:18:14.310Z,17.34
2019-05-30T08:20:44.544Z,17.31
2019-05-30T08:23:14.724Z,17.42
2019-05-30T08:25:45.018Z,17.34
2019-05-30T08:28:15.066Z,17.22
2019-05-30T08:30:45.227Z,17.28
2019-05-30T08:33:15.804Z,17.30
2019-05-30T08:35:49.868Z,17.54
2019-05-30T08:38:18.957Z,17.40
2019-05-30T08:40:49.152Z,17.73
2019-05-30T08:43:19.247Z,17.91
2019-05-30T08:45:49.521Z,18.05
2019-05-30T08:48:19.674Z,18.19
2019-05-30T08:50:49.977Z,18.42
2019-05-30T08:53:20.561Z,18.45
2019-05-30T08:55:50.719Z,18.55
2019-05-30T08:58:21.091Z,18.68
2019-05-30T09:00:51.538Z,18.75
2019-05-30T09:03:21.727Z,18.53
2019-05-30T09:06:02.691Z,18.72
2019-05-30T09:08:23.721Z,18.48
2019-05-30T09:10:54.160Z,18.51
2019-05-30T09:13:24.585Z,18.69
2019-05-30T09:15:55.006Z,18.39
2019-05-30T09:18:25.355Z,18.67
2019-05-30T09:20:56.092Z,18.69
2019-05-30T09:23:26.413Z,18.47
2019-05-30T09:25:56.697Z,18.49
2019-05-30T09:28:27.444Z,18.31
2019-05-30T09:30:57.774Z,18.20
2019-05-30T09:33:28.116Z,18.27
2019-05-30T09:36:12.031Z,18.39
2019-05-30T09:38:30.395Z,18.65
2019-05-30T09:41:00.687Z,18.79
2019-05-30T09:43:31.020Z,18.94
2019-05-30T09:46:01.292Z,18.93
2019-05-30T09:48:31.996Z,19.13
2019-05-30T09:51:02.200Z,19.20
2019-05-30T09:53:32.609Z,19.64
2019-05-30T09:56:02.816Z,19.93
2019-05-30T09:58:33.165Z,20.11
2019-05-30T10:01:04.022Z,19.97
2019-05-30T10:03:34.210Z,19.74
2019-05-30T10:06:04.424Z,19.97
2019-05-30T10:08:34.961Z,19.98
2019-05-30T10:11:06.465Z,20.22
2019-05-30T10:13:36.814Z,20.18
2019-05-30T10:16:07.324Z,19.89
2019-05-30T10:18:37.471Z,20.38
2019-05-30T10:21:07.771Z,20.01
2019-05-30T10:23:37.758Z,20.12
2019-05-30T10:26:08.086Z,19.95
2019-05-30T10:28:38.335Z,20.13
2019-05-30T10:31:08.774Z,20.51
2019-05-30T10:33:39.167Z,20.46
2019-05-30T10:36:09.453Z,20.27
2019-05-30T10:38:41.066Z,20.53
2019-05-30T10:41:11.301Z,20.27
2019-05-30T10:43:41.532Z,20.54
2019-05-30T10:46:11.633Z,20.43
2019-05-30T10:48:42.004Z,20.47
2019-05-30T10:51:12.399Z,20.77
2019-05-30T10:53:42.811Z,20.82
2019-05-30T10:56:13.205Z,20.65
2019-05-30T10:58:43.472Z,20.94
2019-05-30T11:01:13.599Z,20.92
2019-05-30T11:03:43.944Z,21.07
2019-05-30T11:07:10.112Z,20.73
2019-05-30T11:09:30.167Z,20.93
2019-05-30T11:12:00.583Z,20.96
2019-05-30T11:14:30.849Z,21.30
2019-05-30T11:17:01.248Z,21.01
2019-05-30T11:19:31.661Z,21.11
2019-05-30T11:22:02.026Z,21.21
2019-05-30T11:24:32.416Z,21.48
2019-05-30T11:27:02.705Z,21.15
2019-05-30T11:29:32.822Z,21.39
2019-05-30T11:32:03.189Z,20.95
2019-05-30T11:34:33.503Z,20.91
2019-05-30T11:37:18.367Z,20.74
2019-05-30T11:39:35.869Z,20.12
2019-05-30T11:42:06.155Z,20.28
2019-05-30T11:44:36.404Z,20.65
2019-05-30T11:47:07.708Z,21.10
2019-05-30T11:49:38.066Z,21.39
2019-05-30T11:52:08.346Z,21.55
2019-05-30T11:54:38.722Z,21.51
2019-05-30T11:57:08.957Z,21.71
2019-05-30T11:59:39.462Z,22.12
2019-05-30T12:02:09.949Z,22.33
2019-05-30T12:04:41.131Z,22.57
2019-05-30T12:07:11.429Z,21.94
2019-05-30T12:09:41.820Z,21.99
2019-05-30T12:12:12.129Z,21.85
2019-05-30T12:14:42.264Z,21.73
2019-05-30T12:17:12.357Z,21.41
2019-05-30T12:19:42.369Z,21.30
2019-05-30T12:22:12.669Z,21.01
2019-05-30T12:24:43.075Z,20.81
2019-05-30T12:27:13.603Z,20.86
2019-05-30T12:29:44.066Z,20.89
2019-05-30T12:32:14.416Z,20.75
2019-05-30T12:34:44.868Z,20.74
2019-05-30T12:37:15.182Z,20.88
2019-05-30T12:39:45.527Z,21.21
2019-05-30T12:42:15.653Z,21.50
2019-05-30T12:44:45.907Z,21.53
2019-05-30T12:47:16.152Z,22.01
2019-05-30T12:49:46.382Z,22.49
2019-05-30T12:52:16.458Z,22.55
2019-05-30T12:54:46.501Z,22.45
2019-05-30T12:57:16.926Z,22.14
2019-05-30T12:59:47.145Z,21.95
2019-05-30T13:02:17.428Z,21.59
2019-05-30T13:04:47.705Z,21.71
2019-05-30T13:07:17.929Z,21.35
2019-05-30T13:09:48.233Z,21.02
2019-05-30T13:12:18.474Z,21.01
2019-05-30T13:14:48.851Z,21.06
2019-05-30T13:17:20.662Z,21.20
2019-05-30T13:19:50.901Z,21.21
2019-05-30T13:22:21.154Z,21.02
2019-05-30T13:24:51.600Z,21.08
2019-05-30T13:27:23.324Z,21.26
2019-05-30T13:29:52.711Z,21.47
2019-05-30T13:32:23.024Z,21.97
2019-05-30T13:34:53.225Z,22.18
2019-05-30T13:37:23.268Z,22.39
2019-05-30T13:39:53.330Z,22.57
2019-05-30T13:42:23.430Z,22.79
2019-05-30T13:44:53.706Z,23.00
2019-05-30T13:47:24.480Z,22.96
2019-05-30T13:49:53.768Z,23.18
2019-05-30T13:52:24.058Z,22.72
2019-05-30T13:54:54.422Z,22.97
2019-05-30T13:57:24.870Z,23.26
2019-05-30T13:59:55.239Z,23.42
2019-05-30T14:02:25.665Z,23.75
2019-05-30T14:04:55.844Z,23.93
2019-05-30T14:07:26.435Z,23.77
2019-05-30T14:09:56.816Z,23.69
2019-05-30T14:12:27.180Z,22.90
2019-05-30T14:14:57.253Z,22.54
2019-05-30T14:17:27.502Z,22.70
2019-05-30T14:19:57.921Z,22.60
2019-05-30T14:22:28.025Z,22.61
2019-05-30T14:24:58.556Z,22.48
2019-05-30T14:27:28.691Z,22.55
2019-05-30T14:29:58.742Z,22.10
2019-05-30T14:32:29.152Z,22.05
2019-05-30T14:34:59.501Z,22.04
2019-05-30T14:37:29.896Z,22.08
2019-05-30T14:40:00.152Z,22.50
2019-05-30T14:42:30.372Z,22.50
2019-05-30T14:45:00.560Z,22.06
2019-05-30T14:47:32.315Z,22.20
2019-05-30T14:50:02.819Z,22.12
2019-05-30T14:52:33.136Z,22.15
2019-05-30T14:55:03.349Z,22.33
2019-05-30T14:57:33.540Z,22.34
2019-05-30T15:00:07.480Z,22.23
2019-05-30T15:02:37.804Z,22.17
2019-05-30T15:05:09.366Z,21.99
2019-05-30T15:07:39.781Z,22.15
2019-05-30T15:10:12.761Z,22.03
2019-05-30T15:12:43.442Z,21.99
2019-05-30T15:15:16.698Z,21.67
2019-05-30T15:17:46.426Z,21.67
2019-05-30T15:20:17.804Z,21.71
2019-05-30T15:22:48.310Z,21.32
2019-05-30T15:25:18.682Z,21.61
2019-05-30T15:27:49.193Z,21.59
2019-05-30T15:30:18.915Z,21.82
2019-05-30T15:32:49.065Z,21.83
2019-05-30T15:35:19.588Z,21.60
2019-05-30T15:37:49.962Z,21.37
2019-05-30T15:40:22.025Z,21.70
2019-05-30T15:42:53.152Z,21.51
2019-05-30T15:45:23.726Z,21.29
2019-05-30T15:47:53.831Z,21.35
2019-05-30T15:50:24.222Z,21.14
2019-05-30T15:52:54.508Z,21.12
2019-05-30T15:55:24.544Z,21.36
2019-05-30T15:57:54.706Z,21.47
2019-05-30T16:00:25.265Z,21.35
2019-05-30T16:02:55.635Z,21.38
2019-05-30T16:05:25.836Z,21.50
2019-05-30T16:07:56.216Z,21.27
2019-05-30T16:10:26.619Z,21.25
2019-05-30T16:12:57.015Z,21.44
2019-05-30T16:15:27.261Z,21.38
2019-05-30T16:17:57.526Z,21.42
2019-05-30T16:20:27.916Z,21.20
2019-05-30T16:22:58.135Z,21.40
2019-05-30T16:25:28.326Z,21.56
2019-05-30T16:27:57.754Z,21.50
2019-05-30T16:30:28.140Z,21.59
2019-05-30T16:32:58.341Z,21.43
2019-05-30T16:35:28.633Z,21.78
2019-05-30T16:37:58.689Z,21.80
2019-05-30T16:40:28.925Z,22.02
2019-05-30T16:42:59.307Z,22.18
2019-05-30T16:45:29.600Z,22.18
2019-05-30T16:47:59.838Z,22.39
2019-05-30T16:50:30.143Z,22.21
2019-05-30T16:53:00.708Z,22.24
2019-05-30T16:55:31.126Z,21.89
2019-05-30T16:58:01.241Z,22.05
2019-05-30T17:00:31.398Z,22.16
2019-05-30T17:03:01.639Z,22.10
2019-05-30T17:05:32.322Z,22.12
2019-05-30T17:08:01.669Z,22.17
2019-05-30T17:10:33.306Z,22.16
2019-05-30T17:13:02.590Z,22.01
2019-05-30T17:15:32.762Z,22.08
2019-05-30T17:18:03.050Z,22.24
2019-05-30T17:20:33.209Z,22.96
2019-05-30T17:23:03.407Z,24.48
2019-05-30T17:25:33.989Z,25.15
2019-05-30T17:28:04.124Z,25.98
2019-05-30T17:30:34.498Z,25.39
2019-05-30T17:33:04.755Z,25.46
2019-05-30T17:35:35.273Z,25.77
2019-05-30T17:38:05.652Z,25.19
2019-05-30T17:40:44.733Z,25.07
2019-05-30T17:43:08.045Z,24.78
2019-05-30T17:45:38.125Z,24.36
2019-05-30T17:48:16.371Z,24.27
2019-05-30T17:50:41.471Z,23.73
2019-05-30T17:53:11.743Z,23.38
2019-05-30T17:55:42.110Z,23.34
2019-05-30T17:58:12.357Z,23.02
2019-05-30T18:00:43.152Z,22.82
2019-05-30T18:03:13.472Z,22.70
2019-05-30T18:05:43.545Z,22.43
2019-05-30T18:08:13.691Z,22.26
2019-05-30T18:10:53.271Z,22.26
2019-05-30T18:13:15.813Z,21.99
2019-05-30T18:15:46.152Z,21.82
2019-05-30T18:18:16.291Z,21.63
2019-05-30T18:20:48.757Z,21.42
2019-05-30T18:23:17.745Z,21.40
2019-05-30T18:25:47.776Z,21.34
2019-05-30T18:28:17.905Z,21.26
2019-05-30T18:30:48.302Z,21.15
2019-05-30T18:33:18.636Z,21.03
2019-05-30T18:35:49.095Z,20.92
2019-05-30T18:38:19.195Z,20.83
2019-05-30T18:40:49.558Z,20.81
2019-05-30T18:43:20.121Z,20.78
2019-05-30T18:45:50.824Z,20.63
2019-05-30T18:48:21.283Z,20.54
2019-05-30T18:50:51.680Z,20.54
2019-05-30T18:53:21.770Z,20.55
2019-05-30T18:55:51.806Z,20.51
2019-05-30T18:58:22.091Z,20.52
2019-05-30T19:00:52.292Z,20.48
2019-05-30T19:03:22.642Z,20.50
2019-05-30T19:05:53.180Z,20.57
2019-05-30T19:08:23.322Z,20.66
2019-05-30T19:10:53.706Z,20.55
2019-05-30T19:13:24.839Z,20.50
2019-05-30T19:15:55.432Z,20.41
2019-05-30T19:18:25.782Z,20.34
2019-05-30T19:20:55.871Z,20.19
2019-05-30T19:23:26.198Z,20.10
2019-05-30T19:25:56.393Z,20.01
2019-05-30T19:28:26.746Z,19.84
2019-05-30T19:30:57.165Z,19.68
2019-05-30T19:33:28.754Z,19.53
2019-05-30T19:35:59.288Z,19.49
2019-05-30T19:38:29.509Z,19.33
2019-05-30T19:40:59.976Z,19.25
2019-05-30T19:43:30.033Z,19.18
2019-05-30T19:46:00.392Z,19.03
2019-05-30T19:48:30.593Z,18.92
2019-05-30T19:51:00.497Z,18.98
2019-05-30T19:53:31.169Z,18.98
2019-05-30T19:56:00.989Z,18.95
2019-05-30T19:58:31.553Z,18.92
2019-05-30T20:01:01.599Z,18.84
2019-05-30T20:03:38.350Z,18.79
2019-05-30T20:06:02.634Z,18.86
2019-05-30T20:08:48.201Z,18.83
2019-05-30T20:11:03.744Z,18.75
2019-05-30T20:13:34.939Z,18.75
2019-05-30T20:16:05.154Z,18.69
2019-05-30T20:18:35.527Z,18.72
2019-05-30T20:21:05.390Z,18.74
2019-05-30T20:23:48.422Z,18.50
2019-05-30T20:26:06.329Z,18.57
2019-05-30T20:28:36.785Z,18.52
2019-05-30T20:31:06.343Z,18.54
2019-05-30T20:33:36.503Z,18.53
2019-05-30T20:36:06.633Z,18.57
2019-05-30T20:38:36.522Z,18.57
2019-05-30T20:41:06.387Z,18.52
2019-05-30T20:43:36.956Z,18.49
2019-05-30T20:46:20.321Z,18.39
2019-05-30T20:48:40.761Z,18.38
2019-05-30T20:51:20.793Z,18.46
2019-05-30T20:53:41.300Z,18.51
2019-05-30T20:56:11.053Z,18.63
2019-05-30T20:58:41.817Z,18.68
2019-05-30T21:01:11.602Z,18.61
2019-05-30T21:03:41.787Z,18.61
2019-05-30T21:06:11.962Z,18.54
2019-05-30T21:08:43.202Z,18.42
2019-05-30T21:11:13.930Z,18.33
2019-05-30T21:13:44.291Z,18.13
2019-05-30T21:16:16.024Z,18.15
2019-05-30T21:18:47.373Z,18.11
2019-05-30T21:21:17.098Z,18.13
2019-05-30T21:23:46.703Z,18.07
2019-05-30T21:26:16.496Z,17.99
2019-05-30T21:28:47.304Z,17.99
2019-05-30T21:31:17.076Z,18.02
2019-05-30T21:33:47.916Z,17.91
2019-05-30T21:36:18.330Z,17.96
2019-05-30T21:38:48.193Z,17.91
2019-05-30T21:41:17.965Z,17.86
2019-05-30T21:43:48.933Z,17.85
2019-05-30T21:46:18.711Z,17.86
2019-05-30T21:48:49.035Z,17.81
2019-05-30T21:51:18.902Z,17.79
2019-05-30T21:53:49.647Z,17.78
2019-05-30T21:56:19.615Z,17.77
2019-05-30T21:58:50.383Z,17.79
2019-05-30T22:01:25.117Z,17.75
2019-05-30T22:03:53.985Z,17.77
2019-05-30T22:06:23.743Z,17.78
2019-05-30T22:08:53.570Z,17.79
2019-05-30T22:11:23.293Z,17.70
2019-05-30T22:13:53.079Z,17.68
2019-05-30T22:16:22.965Z,17.56
2019-05-30T22:18:52.728Z,17.65
2019-05-30T22:21:22.499Z,17.71
2019-05-30T22:23:52.599Z,17.73
2019-05-30T22:26:22.491Z,17.79
2019-05-30T22:28:52.672Z,17.74
2019-05-30T22:31:23.520Z,17.67
2019-05-30T22:33:53.369Z,17.70
2019-05-30T22:36:23.071Z,17.68
2019-05-30T22:38:53.278Z,17.66
2019-05-30T22:41:23.213Z,17.62
2019-05-30T22:43:53.019Z,17.59
2019-05-30T22:46:22.844Z,17.67
2019-05-30T22:48:53.028Z,17.69
2019-05-30T22:51:22.808Z,17.69
2019-05-30T22:53:53.228Z,17.74
2019-05-30T22:56:23.224Z,17.83
2019-05-30T22:58:53.846Z,17.84
2019-05-30T23:01:23.656Z,17.84
2019-05-30T23:03:54.010Z,17.84
2019-05-30T23:06:24.008Z,17.85
2019-05-30T23:08:54.851Z,17.91
2019-05-30T23:11:24.717Z,18.05
2019-05-30T23:13:54.459Z,18.08
2019-05-30T23:16:24.131Z,18.12
2019-05-30T23:18:54.745Z,18.13
2019-05-30T23:21:24.734Z,18.00
2019-05-30T23:23:55.268Z,18.03
2019-05-30T23:26:25.261Z,17.88
2019-05-30T23:28:55.838Z,17.82
2019-05-30T23:31:25.629Z,17.83
2019-05-30T23:33:56.450Z,17.80
2019-05-30T23:36:26.180Z,17.76
2019-05-30T23:38:56.915Z,17.79
2019-05-30T23:41:26.572Z,17.79
2019-05-30T23:44:08.861Z,17.76
2019-05-30T23:46:27.663Z,17.74
2019-05-30T23:48:57.747Z,17.74
2019-05-30T23:51:27.578Z,17.66
2019-05-30T23:53:58.378Z,17.77
2019-05-30T23:56:28.298Z,17.85
2019-05-30T23:58:58.884Z,17.82
